createdAt,value
2022-10-21T00:05:34.408Z,8.9
2022-10-21T00:08:20.704Z,9.3
2022-10-21T00:13:27.218Z,6.6
2022-10-21T00:18:33.773Z,8.3
2022-10-21T00:23:40.217Z,8.4
2022-10-21T00:28:46.534Z,8.7
2022-10-21T00:33:52.918Z,8.7
2022-10-21T00:38:59.323Z,6.3
2022-10-21T00:44:05.677Z,7.4
2022-10-21T00:49:12.119Z,6.4
2022-10-21T00:54:18.532Z,7.0
2022-10-21T00:59:24.885Z,7.8
2022-10-21T01:04:31.254Z,6.7
2022-10-21T01:09:37.657Z,7.0
2022-10-21T01:14:44.005Z,8.4
2022-10-21T01:19:50.379Z,7.7
2022-10-21T01:24:56.914Z,7.2
2022-10-21T01:30:03.296Z,6.3
2022-10-21T01:35:29.705Z,7.3
2022-10-21T01:43:13.423Z,9.8
2022-10-21T01:56:37.406Z,7.3
2022-10-21T01:56:49.425Z,10.3
2022-10-21T02:01:54.844Z,6.4
2022-10-21T02:07:02.770Z,7.1
2022-10-21T02:12:09.172Z,6.0
2022-10-21T02:17:39.633Z,7.7
2022-10-21T02:22:21.960Z,7.3
2022-10-21T02:27:28.338Z,6.5
2022-10-21T02:32:34.758Z,7.0
2022-10-21T02:37:41.182Z,6.5
2022-10-21T02:42:47.681Z,8.4
2022-10-21T02:49:18.349Z,6.4
2022-10-21T02:53:04.596Z,7.2
2022-10-21T02:58:26.994Z,7.8
2022-10-21T03:03:13.338Z,8.2
2022-10-21T03:08:39.837Z,6.0
2022-10-21T03:13:26.092Z,6.5
2022-10-21T03:18:52.634Z,7.5
2022-10-21T03:23:38.988Z,5.9
2022-10-21T03:28:35.365Z,7.1
2022-10-21T03:33:51.744Z,6.0
2022-10-21T03:40:12.390Z,6.4
2022-10-21T03:44:04.537Z,5.9
2022-10-21T03:49:55.201Z,7.6
2022-10-21T03:54:17.479Z,7.3
2022-10-21T03:59:24.105Z,7.2
2022-10-21T04:04:30.466Z,5.6
2022-10-21T04:09:40.854Z,7.4
2022-10-21T04:14:43.243Z,8.1
2022-10-21T04:20:13.652Z,6.9
2022-10-21T04:24:58.585Z,6.0
2022-10-21T04:30:26.458Z,7.8
2022-10-21T04:35:28.869Z,5.9
2022-10-21T04:40:39.376Z,7.6
2022-10-21T04:45:45.816Z,9.2
2022-10-21T04:50:28.242Z,6.8
2022-10-21T04:55:24.610Z,6.6
2022-10-21T05:00:41.053Z,5.2
2022-10-21T05:05:47.401Z,7.2
2022-10-21T05:10:53.758Z,5.7
2022-10-21T05:16:00.145Z,4.4
2022-10-21T05:21:06.528Z,5.6
2022-10-21T05:26:02.865Z,6.3
2022-10-21T05:31:19.277Z,7.6
2022-10-21T05:36:39.855Z,6.2
2022-10-21T05:41:52.222Z,6.6
2022-10-21T05:46:38.555Z,6.1
2022-10-21T05:52:58.610Z,6.6
2022-10-21T05:56:51.304Z,7.2
2022-10-21T06:02:21.716Z,6.0
2022-10-21T06:07:04.055Z,5.2
2022-10-21T06:12:10.490Z,5.2
2022-10-21T06:17:17.008Z,7.0
2022-10-21T06:22:43.476Z,4.7
2022-10-21T06:27:29.885Z,7.5
2022-10-21T06:32:36.351Z,8.0
2022-10-21T06:37:42.729Z,11.0
2022-10-21T06:42:49.151Z,6.8
2022-10-21T06:47:55.500Z,5.3
2022-10-21T06:52:51.879Z,7.3
2022-10-21T06:58:08.297Z,6.2
2022-10-21T07:03:14.772Z,6.2
2022-10-21T07:08:25.801Z,7.1
2022-10-21T07:13:27.701Z,10.1
2022-10-21T07:18:34.116Z,6.8
2022-10-21T07:23:40.464Z,7.9
2022-10-21T07:28:46.883Z,9.3
2022-10-21T07:33:53.406Z,9.2
2022-10-21T07:38:49.644Z,11.3
2022-10-21T07:44:09.135Z,12.0
2022-10-21T07:49:02.421Z,11.8
2022-10-21T07:54:08.904Z,12.8
2022-10-21T07:59:45.375Z,15.1
2022-10-21T08:04:35.720Z,12.8
2022-10-21T08:09:38.083Z,14.1
2022-10-21T08:15:08.537Z,11.2
2022-10-21T08:20:15.000Z,17.2
2022-10-21T08:24:57.333Z,14.7
2022-10-21T08:30:03.715Z,13.5
2022-10-21T08:35:10.139Z,15.7
2022-10-21T08:40:16.644Z,15.1
2022-10-21T08:45:23.012Z,11.9
2022-10-21T08:50:29.413Z,11.2
2022-10-21T08:55:39.777Z,8.8
2022-10-21T09:01:57.850Z,11.9
2022-10-21T09:05:52.242Z,7.3
2022-10-21T09:10:48.583Z,6.4
2022-10-21T09:16:04.021Z,9.2
2022-10-21T09:21:11.412Z,5.8
2022-10-21T09:26:17.805Z,4.3
2022-10-21T09:31:24.245Z,4.2
2022-10-21T09:36:30.644Z,3.6
2022-10-21T09:41:59.269Z,3.9
2022-10-21T09:46:43.386Z,3.8
2022-10-21T09:51:49.984Z,3.0
2022-10-21T09:56:56.293Z,3.2
2022-10-21T10:02:26.812Z,3.1
2022-10-21T10:07:53.130Z,3.0
2022-10-21T10:12:05.399Z,3.2
2022-10-21T10:17:24.852Z,2.9
2022-10-21T10:23:30.510Z,3.5
2022-10-21T10:27:34.750Z,3.2
2022-10-21T10:32:31.121Z,2.5
2022-10-21T10:38:31.638Z,2.8
2022-10-21T10:42:54.061Z,3.0
2022-10-21T10:48:00.363Z,2.1
2022-10-21T10:52:56.682Z,2.8
2022-10-21T10:58:15.421Z,2.5
2022-10-21T11:03:22.803Z,2.2
2022-10-21T11:08:25.868Z,2.3
2022-10-21T11:13:56.458Z,3.1
2022-10-21T11:18:40.413Z,3.1
2022-10-21T11:23:46.871Z,1.9
2022-10-21T11:28:53.242Z,2.8
2022-10-21T11:33:59.761Z,2.3
2022-10-21T11:39:05.135Z,2.7
2022-10-21T11:44:16.951Z,2.9
2022-10-21T11:49:39.424Z,2.5
2022-10-21T11:54:25.723Z,2.4
2022-10-21T11:59:32.102Z,2.7
2022-10-21T12:05:01.705Z,4.5
2022-10-21T12:09:51.912Z,2.4
2022-10-21T12:14:54.445Z,3.0
2022-10-21T12:20:23.935Z,2.7
2022-10-21T12:25:06.594Z,3.0
2022-10-21T12:30:03.851Z,2.6
2022-10-21T12:35:37.258Z,2.8
2022-10-21T12:40:29.728Z,3.4
2022-10-21T12:45:37.788Z,4.1
2022-10-21T12:51:59.652Z,5.8
2022-10-21T12:57:07.137Z,4.1
2022-10-21T13:02:13.594Z,5.4
2022-10-21T13:07:20.045Z,4.4
2022-10-21T13:13:50.585Z,5.7
2022-10-21T13:17:52.967Z,4.5
2022-10-21T13:22:40.026Z,3.5
2022-10-21T13:27:49.799Z,4.3
2022-10-21T13:32:42.442Z,4.2
2022-10-21T13:37:58.618Z,2.9
2022-10-21T13:43:05.005Z,3.6
2022-10-21T13:48:11.385Z,3.0
2022-10-21T13:53:16.882Z,2.0
2022-10-21T13:58:24.243Z,2.6
2022-10-21T14:03:20.581Z,2.8
2022-10-21T14:08:26.975Z,2.7
2022-10-21T14:18:43.285Z,1.8
2022-10-21T14:23:59.697Z,1.7
2022-10-21T14:28:56.025Z,1.6
2022-10-21T14:34:36.455Z,2.5
2022-10-21T14:39:08.968Z,2.0
2022-10-21T14:44:25.275Z,1.9
2022-10-21T14:49:55.705Z,1.7
2022-10-21T14:55:12.388Z,2.1
2022-10-21T15:00:27.614Z,1.8
2022-10-21T15:05:26.699Z,2.6
2022-10-21T15:11:01.413Z,2.8
2022-10-21T15:28:21.230Z,2.1
2022-10-21T15:40:55.517Z,2.1
2022-10-21T15:50:06.449Z,2.5
2022-10-21T15:55:54.016Z,4.0
2022-10-21T16:01:01.551Z,2.4
2022-10-21T16:06:07.863Z,1.7
2022-10-21T16:11:16.713Z,2.7
2022-10-21T16:16:20.693Z,2.9
2022-10-21T16:21:27.093Z,2.5
2022-10-21T16:37:59.405Z,1.7
2022-10-21T16:43:08.424Z,2.9
2022-10-21T17:00:14.772Z,3.7
2022-10-21T17:05:14.119Z,2.6
2022-10-21T17:10:00.463Z,3.0
2022-10-21T17:15:06.861Z,2.5
2022-10-21T17:20:13.246Z,3.0
2022-10-21T17:25:19.641Z,2.5
2022-10-21T17:30:16.058Z,2.6
2022-10-21T18:45:12.405Z,5.7
2022-10-21T18:50:19.821Z,4.1
2022-10-21T18:55:29.339Z,3.8
2022-10-21T19:00:24.712Z,4.0
2022-10-21T19:05:42.113Z,3.3
2022-10-21T19:13:15.971Z,2.9
2022-10-21T19:16:42.096Z,4.3
2022-10-21T19:22:16.622Z,4.5
2022-10-21T19:31:07.222Z,4.6
2022-10-21T19:36:24.646Z,4.9
2022-10-21T19:41:45.027Z,4.8
2022-10-21T19:46:27.367Z,3.0
2022-10-21T19:51:43.790Z,3.9
2022-10-21T19:56:50.139Z,5.2
2022-10-21T20:02:16.577Z,4.3
2022-10-21T20:07:02.937Z,4.1
2022-10-21T20:11:59.290Z,3.0
2022-10-21T20:17:16.161Z,4.6
2022-10-21T20:22:22.088Z,4.2
2022-10-21T20:27:28.445Z,4.1
2022-10-21T20:32:54.937Z,4.2
2022-10-21T20:37:55.327Z,3.9
2022-10-21T20:43:11.705Z,4.0
2022-10-21T20:47:54.127Z,3.4
2022-10-21T20:53:00.546Z,4.4
2022-10-21T20:58:30.943Z,3.0
2022-10-21T21:04:15.417Z,4.6
2022-10-21T21:10:01.513Z,4.5
2022-10-21T21:13:50.113Z,3.7
2022-10-21T21:19:34.567Z,4.2
2022-10-21T21:23:58.873Z,2.2
2022-10-21T21:28:45.220Z,3.7
2022-10-21T21:33:51.614Z,3.4
2022-10-21T21:39:18.165Z,3.7
2022-10-21T21:44:24.575Z,3.2
2022-10-21T21:49:14.909Z,3.5
2022-10-21T21:54:37.309Z,2.7
2022-10-21T21:59:23.642Z,3.5
2022-10-21T22:04:50.101Z,3.6
2022-10-21T22:09:36.419Z,4.5
2022-10-21T22:14:42.906Z,3.0
2022-10-21T22:19:53.583Z,3.9
2022-10-21T22:25:19.765Z,4.5
2022-10-21T22:30:36.169Z,4.9
2022-10-21T22:35:33.533Z,3.5
2022-10-21T22:51:02.758Z,4.4
2022-10-21T22:51:20.767Z,3.9
2022-10-21T22:53:35.018Z,3.6
2022-10-21T22:55:59.087Z,4.1
2022-10-21T23:01:40.646Z,4.3
2022-10-21T23:06:23.005Z,3.3
2022-10-21T23:11:19.340Z,3.5
2022-10-21T23:16:25.723Z,4.0
2022-10-21T23:21:42.173Z,3.0
2022-10-21T23:26:48.631Z,3.9
2022-10-21T23:31:55.031Z,4.0
2022-10-21T23:37:01.491Z,3.5
2022-10-21T23:41:57.835Z,4.1
2022-10-21T23:47:04.218Z,3.5
2022-10-21T23:52:19.627Z,3.6
